sensor_id;sensor_type;location;lat;lon;timestamp;P1;durP1;ratioP1;P2;durP2;ratioP2
53710;SDS011;39605;52.704;6.752;2023-12-20T00:01:40;8.07;;;1.00;;
53710;SDS011;39605;52.704;6.752;2023-12-20T00:04:06;12.73;;;0.95;;
53710;SDS011;39605;52.704;6.752;2023-12-20T00:06:32;10.95;;;1.38;;
53710;SDS011;39605;52.704;6.752;2023-12-20T00:08:58;10.27;;;0.60;;
53710;SDS011;39605;52.704;6.752;2023-12-20T00:11:24;10.80;;;0.93;;
53710;SDS011;39605;52.704;6.752;2023-12-20T00:13:50;9.30;;;0.90;;
53710;SDS011;39605;52.704;6.752;2023-12-20T00:16:16;11.38;;;0.98;;
53710;SDS011;39605;52.704;6.752;2023-12-20T00:18:43;16.50;;;1.48;;
53710;SDS011;39605;52.704;6.752;2023-12-20T00:21:09;6.60;;;0.70;;
53710;SDS011;39605;52.704;6.752;2023-12-20T00:23:35;9.30;;;1.23;;
53710;SDS011;39605;52.704;6.752;2023-12-20T00:26:01;8.52;;;0.52;;
53710;SDS011;39605;52.704;6.752;2023-12-20T00:28:27;11.63;;;1.38;;
53710;SDS011;39605;52.704;6.752;2023-12-20T00:30:53;12.85;;;0.98;;
53710;SDS011;39605;52.704;6.752;2023-12-20T00:33:19;13.95;;;1.67;;
53710;SDS011;39605;52.704;6.752;2023-12-20T00:35:45;13.27;;;0.95;;
53710;SDS011;39605;52.704;6.752;2023-12-20T00:38:11;7.90;;;0.85;;
53710;SDS011;39605;52.704;6.752;2023-12-20T00:40:37;14.65;;;2.00;;
53710;SDS011;39605;52.704;6.752;2023-12-20T00:43:03;9.13;;;1.00;;
53710;SDS011;39605;52.704;6.752;2023-12-20T00:45:29;10.32;;;1.02;;
53710;SDS011;39605;52.704;6.752;2023-12-20T00:47:55;10.32;;;0.80;;
53710;SDS011;39605;52.704;6.752;2023-12-20T00:50:21;10.52;;;0.70;;
53710;SDS011;39605;52.704;6.752;2023-12-20T00:52:48;11.93;;;0.90;;
53710;SDS011;39605;52.704;6.752;2023-12-20T00:55:14;9.40;;;1.05;;
53710;SDS011;39605;52.704;6.752;2023-12-20T00:57:40;16.33;;;0.90;;
53710;SDS011;39605;52.704;6.752;2023-12-20T01:00:06;13.65;;;0.90;;
53710;SDS011;39605;52.704;6.752;2023-12-20T01:02:34;11.13;;;0.93;;
53710;SDS011;39605;52.704;6.752;2023-12-20T01:05:01;10.85;;;1.02;;
53710;SDS011;39605;52.704;6.752;2023-12-20T01:07:27;16.02;;;1.08;;
53710;SDS011;39605;52.704;6.752;2023-12-20T01:09:54;13.52;;;0.70;;
53710;SDS011;39605;52.704;6.752;2023-12-20T01:12:20;10.40;;;0.90;;
53710;SDS011;39605;52.704;6.752;2023-12-20T01:14:46;10.48;;;0.80;;
53710;SDS011;39605;52.704;6.752;2023-12-20T01:17:12;11.45;;;1.05;;
53710;SDS011;39605;52.704;6.752;2023-12-20T01:19:38;11.85;;;0.93;;
53710;SDS011;39605;52.704;6.752;2023-12-20T01:22:04;12.63;;;0.75;;
53710;SDS011;39605;52.704;6.752;2023-12-20T01:24:30;12.18;;;1.30;;
53710;SDS011;39605;52.704;6.752;2023-12-20T01:26:56;13.00;;;1.10;;
53710;SDS011;39605;52.704;6.752;2023-12-20T01:29:22;10.93;;;0.80;;
53710;SDS011;39605;52.704;6.752;2023-12-20T01:31:48;15.38;;;1.27;;
53710;SDS011;39605;52.704;6.752;2023-12-20T01:34:15;13.57;;;1.45;;
53710;SDS011;39605;52.704;6.752;2023-12-20T01:36:41;15.95;;;1.73;;
53710;SDS011;39605;52.704;6.752;2023-12-20T01:39:07;10.25;;;0.90;;
53710;SDS011;39605;52.704;6.752;2023-12-20T01:41:33;12.68;;;1.05;;
53710;SDS011;39605;52.704;6.752;2023-12-20T01:43:59;14.55;;;1.10;;
53710;SDS011;39605;52.704;6.752;2023-12-20T01:46:25;9.32;;;1.40;;
53710;SDS011;39605;52.704;6.752;2023-12-20T01:48:51;13.57;;;1.48;;
53710;SDS011;39605;52.704;6.752;2023-12-20T01:51:18;12.75;;;0.93;;
53710;SDS011;39605;52.704;6.752;2023-12-20T01:53:45;13.25;;;1.70;;
53710;SDS011;39605;52.704;6.752;2023-12-20T01:56:12;11.20;;;1.50;;
53710;SDS011;39605;52.704;6.752;2023-12-20T01:58:39;14.02;;;1.17;;
53710;SDS011;39605;52.704;6.752;2023-12-20T02:01:09;14.55;;;1.70;;
53710;SDS011;39605;52.704;6.752;2023-12-20T02:03:35;14.32;;;1.45;;
53710;SDS011;39605;52.704;6.752;2023-12-20T02:06:02;13.48;;;1.17;;
53710;SDS011;39605;52.704;6.752;2023-12-20T02:08:28;15.75;;;1.00;;
53710;SDS011;39605;52.704;6.752;2023-12-20T02:10:55;10.70;;;1.63;;
53710;SDS011;39605;52.704;6.752;2023-12-20T02:13:21;14.05;;;1.30;;
53710;SDS011;39605;52.704;6.752;2023-12-20T02:15:48;15.75;;;2.30;;
53710;SDS011;39605;52.704;6.752;2023-12-20T02:18:14;13.70;;;1.60;;
53710;SDS011;39605;52.704;6.752;2023-12-20T02:20:41;15.38;;;1.38;;
53710;SDS011;39605;52.704;6.752;2023-12-20T02:23:08;17.27;;;1.30;;
53710;SDS011;39605;52.704;6.752;2023-12-20T02:25:34;17.85;;;1.50;;
53710;SDS011;39605;52.704;6.752;2023-12-20T02:28:00;12.27;;;0.90;;
53710;SDS011;39605;52.704;6.752;2023-12-20T02:30:26;16.17;;;1.40;;
53710;SDS011;39605;52.704;6.752;2023-12-20T02:32:52;16.65;;;1.98;;
53710;SDS011;39605;52.704;6.752;2023-12-20T02:35:19;20.45;;;1.65;;
53710;SDS011;39605;52.704;6.752;2023-12-20T02:37:45;12.18;;;1.33;;
53710;SDS011;39605;52.704;6.752;2023-12-20T02:40:11;17.92;;;1.55;;
53710;SDS011;39605;52.704;6.752;2023-12-20T02:42:37;12.18;;;0.90;;
53710;SDS011;39605;52.704;6.752;2023-12-20T02:45:03;14.52;;;1.85;;
53710;SDS011;39605;52.704;6.752;2023-12-20T02:47:30;13.02;;;1.58;;
53710;SDS011;39605;52.704;6.752;2023-12-20T02:49:56;12.52;;;1.30;;
53710;SDS011;39605;52.704;6.752;2023-12-20T02:52:23;13.90;;;0.50;;
53710;SDS011;39605;52.704;6.752;2023-12-20T02:54:49;13.60;;;0.98;;
53710;SDS011;39605;52.704;6.752;2023-12-20T02:57:15;12.95;;;1.88;;
53710;SDS011;39605;52.704;6.752;2023-12-20T02:59:41;14.18;;;1.30;;
53710;SDS011;39605;52.704;6.752;2023-12-20T03:02:07;12.95;;;1.20;;
53710;SDS011;39605;52.704;6.752;2023-12-20T03:04:33;11.65;;;0.90;;
53710;SDS011;39605;52.704;6.752;2023-12-20T03:06:59;16.15;;;1.40;;
53710;SDS011;39605;52.704;6.752;2023-12-20T03:09:25;10.50;;;1.20;;
53710;SDS011;39605;52.704;6.752;2023-12-20T03:11:51;15.00;;;1.58;;
53710;SDS011;39605;52.704;6.752;2023-12-20T03:14:17;10.70;;;1.42;;
53710;SDS011;39605;52.704;6.752;2023-12-20T03:16:47;19.30;;;2.45;;
53710;SDS011;39605;52.704;6.752;2023-12-20T03:19:15;18.67;;;2.60;;
53710;SDS011;39605;52.704;6.752;2023-12-20T03:21:41;15.68;;;2.17;;
53710;SDS011;39605;52.704;6.752;2023-12-20T03:24:07;20.13;;;2.30;;
53710;SDS011;39605;52.704;6.752;2023-12-20T03:26:33;22.13;;;2.60;;
53710;SDS011;39605;52.704;6.752;2023-12-20T03:28:59;18.25;;;2.00;;
53710;SDS011;39605;52.704;6.752;2023-12-20T03:31:25;15.45;;;1.80;;
53710;SDS011;39605;52.704;6.752;2023-12-20T03:33:51;27.25;;;2.90;;
53710;SDS011;39605;52.704;6.752;2023-12-20T03:36:19;20.15;;;2.10;;
53710;SDS011;39605;52.704;6.752;2023-12-20T03:38:45;17.42;;;1.88;;
53710;SDS011;39605;52.704;6.752;2023-12-20T03:41:11;23.42;;;3.17;;
53710;SDS011;39605;52.704;6.752;2023-12-20T03:43:37;18.83;;;2.53;;
53710;SDS011;39605;52.704;6.752;2023-12-20T03:46:03;24.42;;;2.42;;
53710;SDS011;39605;52.704;6.752;2023-12-20T03:48:30;21.85;;;2.90;;
53710;SDS011;39605;52.704;6.752;2023-12-20T03:50:56;27.83;;;3.80;;
53710;SDS011;39605;52.704;6.752;2023-12-20T03:53:22;22.42;;;2.33;;
53710;SDS011;39605;52.704;6.752;2023-12-20T03:55:49;28.20;;;2.20;;
53710;SDS011;39605;52.704;6.752;2023-12-20T03:58:15;30.45;;;4.25;;
53710;SDS011;39605;52.704;6.752;2023-12-20T04:00:41;21.50;;;2.90;;
53710;SDS011;39605;52.704;6.752;2023-12-20T04:03:07;23.38;;;2.53;;
53710;SDS011;39605;52.704;6.752;2023-12-20T04:05:33;25.08;;;3.13;;
53710;SDS011;39605;52.704;6.752;2023-12-20T04:08:01;20.20;;;2.75;;
53710;SDS011;39605;52.704;6.752;2023-12-20T04:10:27;19.30;;;2.75;;
53710;SDS011;39605;52.704;6.752;2023-12-20T04:12:53;22.98;;;3.33;;
53710;SDS011;39605;52.704;6.752;2023-12-20T04:15:20;18.92;;;2.78;;
53710;SDS011;39605;52.704;6.752;2023-12-20T04:17:46;23.67;;;3.15;;
53710;SDS011;39605;52.704;6.752;2023-12-20T04:20:12;21.23;;;3.00;;
53710;SDS011;39605;52.704;6.752;2023-12-20T04:22:38;20.88;;;3.53;;
53710;SDS011;39605;52.704;6.752;2023-12-20T04:25:04;24.52;;;2.83;;
53710;SDS011;39605;52.704;6.752;2023-12-20T04:27:30;17.17;;;2.75;;
53710;SDS011;39605;52.704;6.752;2023-12-20T04:29:56;28.20;;;3.28;;
53710;SDS011;39605;52.704;6.752;2023-12-20T04:32:22;20.75;;;3.13;;
53710;SDS011;39605;52.704;6.752;2023-12-20T04:34:49;27.52;;;3.53;;
53710;SDS011;39605;52.704;6.752;2023-12-20T04:37:15;23.05;;;2.97;;
53710;SDS011;39605;52.704;6.752;2023-12-20T04:39:41;25.50;;;3.22;;
53710;SDS011;39605;52.704;6.752;2023-12-20T04:42:07;23.02;;;3.45;;
53710;SDS011;39605;52.704;6.752;2023-12-20T04:44:33;20.35;;;3.22;;
53710;SDS011;39605;52.704;6.752;2023-12-20T04:47:00;20.83;;;2.80;;
53710;SDS011;39605;52.704;6.752;2023-12-20T04:49:26;29.30;;;3.40;;
53710;SDS011;39605;52.704;6.752;2023-12-20T04:51:52;25.77;;;4.07;;
53710;SDS011;39605;52.704;6.752;2023-12-20T04:54:18;22.15;;;3.03;;
53710;SDS011;39605;52.704;6.752;2023-12-20T04:56:44;24.10;;;3.20;;
53710;SDS011;39605;52.704;6.752;2023-12-20T04:59:11;26.92;;;4.63;;
53710;SDS011;39605;52.704;6.752;2023-12-20T05:01:38;29.83;;;3.50;;
53710;SDS011;39605;52.704;6.752;2023-12-20T05:04:04;24.70;;;3.38;;
53710;SDS011;39605;52.704;6.752;2023-12-20T05:06:30;20.52;;;3.30;;
53710;SDS011;39605;52.704;6.752;2023-12-20T05:08:56;25.95;;;3.47;;
53710;SDS011;39605;52.704;6.752;2023-12-20T05:11:25;29.42;;;3.97;;
53710;SDS011;39605;52.704;6.752;2023-12-20T05:13:51;25.52;;;3.47;;
53710;SDS011;39605;52.704;6.752;2023-12-20T05:16:17;24.05;;;3.65;;
53710;SDS011;39605;52.704;6.752;2023-12-20T05:18:43;28.13;;;3.67;;
53710;SDS011;39605;52.704;6.752;2023-12-20T05:21:09;23.85;;;2.70;;
53710;SDS011;39605;52.704;6.752;2023-12-20T05:23:35;35.75;;;5.45;;
53710;SDS011;39605;52.704;6.752;2023-12-20T05:26:01;26.73;;;3.65;;
53710;SDS011;39605;52.704;6.752;2023-12-20T05:28:27;29.52;;;4.07;;
53710;SDS011;39605;52.704;6.752;2023-12-20T05:30:53;25.42;;;3.75;;
53710;SDS011;39605;52.704;6.752;2023-12-20T05:33:20;23.77;;;3.65;;
53710;SDS011;39605;52.704;6.752;2023-12-20T05:35:46;30.60;;;4.30;;
53710;SDS011;39605;52.704;6.752;2023-12-20T05:38:12;25.88;;;2.92;;
53710;SDS011;39605;52.704;6.752;2023-12-20T05:40:38;25.40;;;3.40;;
53710;SDS011;39605;52.704;6.752;2023-12-20T05:43:04;30.08;;;3.20;;
53710;SDS011;39605;52.704;6.752;2023-12-20T05:45:30;26.20;;;3.75;;
53710;SDS011;39605;52.704;6.752;2023-12-20T05:47:56;21.38;;;3.38;;
53710;SDS011;39605;52.704;6.752;2023-12-20T05:50:23;27.67;;;3.50;;
53710;SDS011;39605;52.704;6.752;2023-12-20T05:52:50;24.30;;;3.75;;
53710;SDS011;39605;52.704;6.752;2023-12-20T05:55:16;28.17;;;4.63;;
53710;SDS011;39605;52.704;6.752;2023-12-20T05:57:42;31.58;;;3.40;;
53710;SDS011;39605;52.704;6.752;2023-12-20T06:00:08;27.08;;;3.63;;
53710;SDS011;39605;52.704;6.752;2023-12-20T06:02:35;29.58;;;4.43;;
53710;SDS011;39605;52.704;6.752;2023-12-20T06:05:02;19.75;;;3.15;;
53710;SDS011;39605;52.704;6.752;2023-12-20T06:07:28;32.38;;;4.55;;
53710;SDS011;39605;52.704;6.752;2023-12-20T06:09:54;25.45;;;2.97;;
53710;SDS011;39605;52.704;6.752;2023-12-20T06:12:20;29.45;;;4.22;;
53710;SDS011;39605;52.704;6.752;2023-12-20T06:14:47;22.88;;;3.83;;
53710;SDS011;39605;52.704;6.752;2023-12-20T06:17:13;28.83;;;3.90;;
53710;SDS011;39605;52.704;6.752;2023-12-20T06:19:39;25.98;;;3.60;;
53710;SDS011;39605;52.704;6.752;2023-12-20T06:22:05;24.15;;;3.75;;
53710;SDS011;39605;52.704;6.752;2023-12-20T06:24:31;21.45;;;2.92;;
53710;SDS011;39605;52.704;6.752;2023-12-20T06:26:59;21.67;;;3.60;;
53710;SDS011;39605;52.704;6.752;2023-12-20T06:29:25;22.50;;;3.13;;
53710;SDS011;39605;52.704;6.752;2023-12-20T06:31:52;23.83;;;3.17;;
53710;SDS011;39605;52.704;6.752;2023-12-20T06:34:18;26.42;;;3.88;;
53710;SDS011;39605;52.704;6.752;2023-12-20T06:36:44;26.77;;;4.28;;
53710;SDS011;39605;52.704;6.752;2023-12-20T06:39:10;22.35;;;4.35;;
53710;SDS011;39605;52.704;6.752;2023-12-20T06:41:37;21.77;;;3.13;;
53710;SDS011;39605;52.704;6.752;2023-12-20T06:44:03;20.92;;;3.50;;
53710;SDS011;39605;52.704;6.752;2023-12-20T06:46:30;23.30;;;4.00;;
53710;SDS011;39605;52.704;6.752;2023-12-20T06:48:56;18.25;;;3.08;;
53710;SDS011;39605;52.704;6.752;2023-12-20T06:51:22;30.88;;;3.35;;
53710;SDS011;39605;52.704;6.752;2023-12-20T06:53:51;22.85;;;3.47;;
53710;SDS011;39605;52.704;6.752;2023-12-20T06:56:17;27.85;;;3.35;;
53710;SDS011;39605;52.704;6.752;2023-12-20T06:58:43;26.00;;;3.58;;
53710;SDS011;39605;52.704;6.752;2023-12-20T07:01:12;19.33;;;3.15;;
53710;SDS011;39605;52.704;6.752;2023-12-20T07:03:39;29.95;;;3.78;;
53710;SDS011;39605;52.704;6.752;2023-12-20T07:06:05;21.88;;;3.15;;
53710;SDS011;39605;52.704;6.752;2023-12-20T07:08:32;21.17;;;3.08;;
53710;SDS011;39605;52.704;6.752;2023-12-20T07:10:58;23.15;;;3.70;;
53710;SDS011;39605;52.704;6.752;2023-12-20T07:13:24;21.17;;;2.88;;
53710;SDS011;39605;52.704;6.752;2023-12-20T07:15:50;21.17;;;3.50;;
53710;SDS011;39605;52.704;6.752;2023-12-20T07:18:16;18.10;;;2.50;;
53710;SDS011;39605;52.704;6.752;2023-12-20T07:20:42;19.23;;;3.08;;
53710;SDS011;39605;52.704;6.752;2023-12-20T07:23:09;19.10;;;2.88;;
53710;SDS011;39605;52.704;6.752;2023-12-20T07:25:35;21.83;;;3.28;;
53710;SDS011;39605;52.704;6.752;2023-12-20T07:28:01;19.58;;;2.40;;
53710;SDS011;39605;52.704;6.752;2023-12-20T07:30:27;23.65;;;3.42;;
53710;SDS011;39605;52.704;6.752;2023-12-20T07:32:53;26.27;;;2.88;;
53710;SDS011;39605;52.704;6.752;2023-12-20T07:35:19;22.38;;;2.78;;
53710;SDS011;39605;52.704;6.752;2023-12-20T07:37:45;24.15;;;3.20;;
53710;SDS011;39605;52.704;6.752;2023-12-20T07:40:11;21.80;;;3.67;;
53710;SDS011;39605;52.704;6.752;2023-12-20T07:42:37;20.40;;;2.95;;
53710;SDS011;39605;52.704;6.752;2023-12-20T07:45:03;25.40;;;4.22;;
53710;SDS011;39605;52.704;6.752;2023-12-20T07:47:30;21.58;;;3.22;;
53710;SDS011;39605;52.704;6.752;2023-12-20T07:49:56;23.50;;;3.20;;
53710;SDS011;39605;52.704;6.752;2023-12-20T07:52:22;20.20;;;2.55;;
53710;SDS011;39605;52.704;6.752;2023-12-20T07:54:48;24.27;;;3.13;;
53710;SDS011;39605;52.704;6.752;2023-12-20T07:57:14;26.88;;;3.90;;
53710;SDS011;39605;52.704;6.752;2023-12-20T07:59:40;28.70;;;3.92;;
53710;SDS011;39605;52.704;6.752;2023-12-20T08:02:06;19.00;;;3.15;;
53710;SDS011;39605;52.704;6.752;2023-12-20T08:04:33;18.88;;;3.30;;
53710;SDS011;39605;52.704;6.752;2023-12-20T08:06:59;29.38;;;3.88;;
53710;SDS011;39605;52.704;6.752;2023-12-20T08:09:25;21.98;;;2.88;;
53710;SDS011;39605;52.704;6.752;2023-12-20T08:11:51;20.08;;;2.80;;
53710;SDS011;39605;52.704;6.752;2023-12-20T08:14:17;21.98;;;2.97;;
53710;SDS011;39605;52.704;6.752;2023-12-20T08:16:43;22.00;;;3.47;;
53710;SDS011;39605;52.704;6.752;2023-12-20T08:19:09;22.83;;;3.33;;
53710;SDS011;39605;52.704;6.752;2023-12-20T08:21:35;23.60;;;3.40;;
53710;SDS011;39605;52.704;6.752;2023-12-20T08:24:02;21.38;;;3.50;;
53710;SDS011;39605;52.704;6.752;2023-12-20T08:26:28;27.05;;;3.10;;
53710;SDS011;39605;52.704;6.752;2023-12-20T08:28:54;22.88;;;3.58;;
53710;SDS011;39605;52.704;6.752;2023-12-20T08:31:20;23.83;;;3.22;;
53710;SDS011;39605;52.704;6.752;2023-12-20T08:33:47;20.35;;;2.60;;
53710;SDS011;39605;52.704;6.752;2023-12-20T08:36:13;19.88;;;2.78;;
53710;SDS011;39605;52.704;6.752;2023-12-20T08:38:39;22.55;;;3.33;;
53710;SDS011;39605;52.704;6.752;2023-12-20T08:41:06;27.70;;;4.15;;
53710;SDS011;39605;52.704;6.752;2023-12-20T08:43:35;24.25;;;3.38;;
53710;SDS011;39605;52.704;6.752;2023-12-20T08:46:02;28.00;;;4.28;;
53710;SDS011;39605;52.704;6.752;2023-12-20T08:48:28;21.25;;;3.35;;
53710;SDS011;39605;52.704;6.752;2023-12-20T08:50:54;22.60;;;4.25;;
53710;SDS011;39605;52.704;6.752;2023-12-20T08:53:20;32.67;;;4.60;;
53710;SDS011;39605;52.704;6.752;2023-12-20T08:55:46;24.38;;;3.88;;
53710;SDS011;39605;52.704;6.752;2023-12-20T08:58:13;28.10;;;3.95;;
53710;SDS011;39605;52.704;6.752;2023-12-20T09:00:39;27.58;;;3.13;;
53710;SDS011;39605;52.704;6.752;2023-12-20T09:03:05;29.35;;;4.28;;
53710;SDS011;39605;52.704;6.752;2023-12-20T09:05:31;25.10;;;4.57;;
53710;SDS011;39605;52.704;6.752;2023-12-20T09:07:57;19.63;;;4.25;;
53710;SDS011;39605;52.704;6.752;2023-12-20T09:10:23;30.45;;;3.90;;
53710;SDS011;39605;52.704;6.752;2023-12-20T09:12:50;28.08;;;3.47;;
53710;SDS011;39605;52.704;6.752;2023-12-20T09:15:16;28.60;;;4.03;;
53710;SDS011;39605;52.704;6.752;2023-12-20T09:17:42;25.20;;;4.00;;
53710;SDS011;39605;52.704;6.752;2023-12-20T09:20:09;22.73;;;3.47;;
53710;SDS011;39605;52.704;6.752;2023-12-20T09:22:35;27.98;;;3.95;;
53710;SDS011;39605;52.704;6.752;2023-12-20T09:25:03;22.27;;;3.95;;
53710;SDS011;39605;52.704;6.752;2023-12-20T09:27:29;22.63;;;3.60;;
53710;SDS011;39605;52.704;6.752;2023-12-20T09:29:55;21.05;;;3.30;;
53710;SDS011;39605;52.704;6.752;2023-12-20T09:32:21;23.83;;;3.50;;
53710;SDS011;39605;52.704;6.752;2023-12-20T09:34:47;24.45;;;3.83;;
53710;SDS011;39605;52.704;6.752;2023-12-20T09:37:13;24.23;;;3.92;;
53710;SDS011;39605;52.704;6.752;2023-12-20T09:39:39;25.15;;;3.58;;
53710;SDS011;39605;52.704;6.752;2023-12-20T09:42:06;26.25;;;3.75;;
53710;SDS011;39605;52.704;6.752;2023-12-20T09:44:33;23.05;;;3.63;;
53710;SDS011;39605;52.704;6.752;2023-12-20T09:47:03;24.35;;;3.88;;
53710;SDS011;39605;52.704;6.752;2023-12-20T09:49:29;27.23;;;3.38;;
53710;SDS011;39605;52.704;6.752;2023-12-20T09:51:56;26.20;;;3.38;;
53710;SDS011;39605;52.704;6.752;2023-12-20T09:54:22;25.20;;;4.07;;
53710;SDS011;39605;52.704;6.752;2023-12-20T09:56:49;23.50;;;3.50;;
53710;SDS011;39605;52.704;6.752;2023-12-20T09:59:15;20.20;;;3.47;;
53710;SDS011;39605;52.704;6.752;2023-12-20T10:01:41;19.98;;;3.58;;
53710;SDS011;39605;52.704;6.752;2023-12-20T10:04:08;26.30;;;3.72;;
53710;SDS011;39605;52.704;6.752;2023-12-20T10:06:41;23.83;;;2.95;;
53710;SDS011;39605;52.704;6.752;2023-12-20T10:09:07;22.67;;;2.95;;
53710;SDS011;39605;52.704;6.752;2023-12-20T10:11:37;24.58;;;3.78;;
53710;SDS011;39605;52.704;6.752;2023-12-20T10:14:03;32.00;;;5.93;;
53710;SDS011;39605;52.704;6.752;2023-12-20T10:16:30;28.33;;;3.67;;
53710;SDS011;39605;52.704;6.752;2023-12-20T10:18:56;15.70;;;1.52;;
53710;SDS011;39605;52.704;6.752;2023-12-20T10:21:22;5.32;;;0.50;;
53710;SDS011;39605;52.704;6.752;2023-12-20T10:23:51;9.13;;;0.73;;
53710;SDS011;39605;52.704;6.752;2023-12-20T10:26:21;7.40;;;0.73;;
53710;SDS011;39605;52.704;6.752;2023-12-20T10:28:54;9.80;;;0.70;;
53710;SDS011;39605;52.704;6.752;2023-12-20T10:33:53;5.32;;;0.40;;
53710;SDS011;39605;52.704;6.752;2023-12-20T10:36:19;9.75;;;0.70;;
53710;SDS011;39605;52.704;6.752;2023-12-20T10:38:45;8.65;;;0.70;;
53710;SDS011;39605;52.704;6.752;2023-12-20T10:41:12;5.28;;;0.70;;
53710;SDS011;39605;52.704;6.752;2023-12-20T10:43:42;6.07;;;0.93;;
53710;SDS011;39605;52.704;6.752;2023-12-20T10:46:08;6.95;;;0.38;;
53710;SDS011;39605;52.704;6.752;2023-12-20T10:48:34;7.53;;;0.85;;
53710;SDS011;39605;52.704;6.752;2023-12-20T10:51:01;7.18;;;1.10;;
53710;SDS011;39605;52.704;6.752;2023-12-20T10:53:27;7.78;;;0.82;;
53710;SDS011;39605;52.704;6.752;2023-12-20T10:55:55;9.45;;;1.17;;
53710;SDS011;39605;52.704;6.752;2023-12-20T10:58:24;10.45;;;1.60;;
53710;SDS011;39605;52.704;6.752;2023-12-20T11:00:51;8.38;;;0.70;;
53710;SDS011;39605;52.704;6.752;2023-12-20T11:03:21;7.78;;;0.98;;
53710;SDS011;39605;52.704;6.752;2023-12-20T11:09:03;9.50;;;0.95;;
53710;SDS011;39605;52.704;6.752;2023-12-20T11:13:44;5.05;;;0.57;;
53710;SDS011;39605;52.704;6.752;2023-12-20T11:16:14;5.32;;;0.45;;
53710;SDS011;39605;52.704;6.752;2023-12-20T11:18:40;10.88;;;0.60;;
53710;SDS011;39605;52.704;6.752;2023-12-20T11:21:07;10.75;;;0.98;;
53710;SDS011;39605;52.704;6.752;2023-12-20T11:23:33;8.00;;;0.55;;
53710;SDS011;39605;52.704;6.752;2023-12-20T11:25:59;9.23;;;0.40;;
53710;SDS011;39605;52.704;6.752;2023-12-20T11:28:26;7.07;;;0.80;;
53710;SDS011;39605;52.704;6.752;2023-12-20T11:31:00;7.47;;;0.70;;
53710;SDS011;39605;52.704;6.752;2023-12-20T11:33:27;9.40;;;1.08;;
53710;SDS011;39605;52.704;6.752;2023-12-20T11:35:55;5.40;;;0.70;;
53710;SDS011;39605;52.704;6.752;2023-12-20T11:38:21;6.63;;;0.57;;
53710;SDS011;39605;52.704;6.752;2023-12-20T11:40:51;9.13;;;0.52;;
53710;SDS011;39605;52.704;6.752;2023-12-20T11:43:32;4.35;;;1.15;;
53710;SDS011;39605;52.704;6.752;2023-12-20T11:46:04;4.50;;;0.30;;
53710;SDS011;39605;52.704;6.752;2023-12-20T11:48:31;5.18;;;0.50;;
53710;SDS011;39605;52.704;6.752;2023-12-20T11:50:57;11.07;;;0.50;;
53710;SDS011;39605;52.704;6.752;2023-12-20T11:53:23;6.53;;;0.50;;
53710;SDS011;39605;52.704;6.752;2023-12-20T11:55:49;11.52;;;1.13;;
53710;SDS011;39605;52.704;6.752;2023-12-20T11:58:16;7.32;;;0.45;;
53710;SDS011;39605;52.704;6.752;2023-12-20T12:00:42;10.15;;;0.93;;
53710;SDS011;39605;52.704;6.752;2023-12-20T12:03:08;7.63;;;0.52;;
53710;SDS011;39605;52.704;6.752;2023-12-20T12:05:35;10.25;;;0.82;;
53710;SDS011;39605;52.704;6.752;2023-12-20T12:08:02;10.05;;;0.70;;
53710;SDS011;39605;52.704;6.752;2023-12-20T12:10:28;9.32;;;0.70;;
53710;SDS011;39605;52.704;6.752;2023-12-20T12:12:55;11.57;;;0.80;;
53710;SDS011;39605;52.704;6.752;2023-12-20T12:15:21;6.35;;;0.73;;
53710;SDS011;39605;52.704;6.752;2023-12-20T12:17:57;11.30;;;1.20;;
53710;SDS011;39605;52.704;6.752;2023-12-20T12:20:24;13.98;;;0.75;;
53710;SDS011;39605;52.704;6.752;2023-12-20T12:23:03;7.25;;;0.70;;
53710;SDS011;39605;52.704;6.752;2023-12-20T12:25:30;6.93;;;0.60;;
53710;SDS011;39605;52.704;6.752;2023-12-20T12:27:56;7.80;;;0.60;;
53710;SDS011;39605;52.704;6.752;2023-12-20T12:30:23;8.63;;;0.70;;
53710;SDS011;39605;52.704;6.752;2023-12-20T12:32:53;5.10;;;0.50;;
53710;SDS011;39605;52.704;6.752;2023-12-20T12:35:19;7.20;;;0.40;;
53710;SDS011;39605;52.704;6.752;2023-12-20T12:37:46;5.47;;;0.70;;
53710;SDS011;39605;52.704;6.752;2023-12-20T12:40:13;4.05;;;0.50;;
53710;SDS011;39605;52.704;6.752;2023-12-20T12:42:39;5.50;;;0.70;;
53710;SDS011;39605;52.704;6.752;2023-12-20T12:45:05;7.22;;;0.70;;
53710;SDS011;39605;52.704;6.752;2023-12-20T12:47:32;7.13;;;0.75;;
53710;SDS011;39605;52.704;6.752;2023-12-20T12:49:58;10.98;;;0.75;;
53710;SDS011;39605;52.704;6.752;2023-12-20T12:52:24;10.13;;;0.60;;
53710;SDS011;39605;52.704;6.752;2023-12-20T12:54:51;5.85;;;0.45;;
53710;SDS011;39605;52.704;6.752;2023-12-20T12:57:18;7.47;;;0.52;;
53710;SDS011;39605;52.704;6.752;2023-12-20T12:59:44;11.20;;;0.50;;
53710;SDS011;39605;52.704;6.752;2023-12-20T13:02:13;7.53;;;0.75;;
53710;SDS011;39605;52.704;6.752;2023-12-20T13:04:40;9.98;;;0.75;;
53710;SDS011;39605;52.704;6.752;2023-12-20T13:07:06;9.27;;;0.57;;
53710;SDS011;39605;52.704;6.752;2023-12-20T13:09:33;9.10;;;1.05;;
53710;SDS011;39605;52.704;6.752;2023-12-20T13:11:59;8.75;;;0.73;;
53710;SDS011;39605;52.704;6.752;2023-12-20T13:14:28;9.35;;;0.75;;
53710;SDS011;39605;52.704;6.752;2023-12-20T13:16:54;8.63;;;0.77;;
53710;SDS011;39605;52.704;6.752;2023-12-20T13:19:21;10.45;;;0.93;;
53710;SDS011;39605;52.704;6.752;2023-12-20T13:21:47;8.32;;;0.82;;
53710;SDS011;39605;52.704;6.752;2023-12-20T13:24:13;9.52;;;0.70;;
53710;SDS011;39605;52.704;6.752;2023-12-20T13:26:39;10.50;;;0.90;;
53710;SDS011;39605;52.704;6.752;2023-12-20T13:29:07;8.05;;;0.50;;
53710;SDS011;39605;52.704;6.752;2023-12-20T13:31:33;9.45;;;1.08;;
53710;SDS011;39605;52.704;6.752;2023-12-20T13:34:01;8.57;;;0.80;;
53710;SDS011;39605;52.704;6.752;2023-12-20T13:36:27;6.75;;;0.60;;
53710;SDS011;39605;52.704;6.752;2023-12-20T13:38:53;10.10;;;0.70;;
53710;SDS011;39605;52.704;6.752;2023-12-20T13:41:19;7.88;;;0.60;;
53710;SDS011;39605;52.704;6.752;2023-12-20T13:43:45;10.43;;;0.70;;
53710;SDS011;39605;52.704;6.752;2023-12-20T13:46:11;8.05;;;0.68;;
53710;SDS011;39605;52.704;6.752;2023-12-20T13:48:39;5.57;;;0.73;;
53710;SDS011;39605;52.704;6.752;2023-12-20T13:51:05;6.68;;;0.80;;
53710;SDS011;39605;52.704;6.752;2023-12-20T13:53:31;7.47;;;0.50;;
53710;SDS011;39605;52.704;6.752;2023-12-20T13:55:57;7.13;;;0.45;;
53710;SDS011;39605;52.704;6.752;2023-12-20T13:58:25;6.20;;;0.38;;
53710;SDS011;39605;52.704;6.752;2023-12-20T14:00:51;6.13;;;0.40;;
53710;SDS011;39605;52.704;6.752;2023-12-20T14:03:17;4.38;;;0.50;;
53710;SDS011;39605;52.704;6.752;2023-12-20T14:05:44;3.50;;;0.30;;
53710;SDS011;39605;52.704;6.752;2023-12-20T14:08:11;4.93;;;0.50;;
53710;SDS011;39605;52.704;6.752;2023-12-20T14:10:37;8.00;;;0.30;;
53710;SDS011;39605;52.704;6.752;2023-12-20T14:13:03;6.38;;;0.50;;
53710;SDS011;39605;52.704;6.752;2023-12-20T14:15:30;5.43;;;0.60;;
53710;SDS011;39605;52.704;6.752;2023-12-20T14:18:02;8.75;;;0.90;;
53710;SDS011;39605;52.704;6.752;2023-12-20T14:20:28;9.07;;;0.52;;
53710;SDS011;39605;52.704;6.752;2023-12-20T14:22:54;7.45;;;0.55;;
53710;SDS011;39605;52.704;6.752;2023-12-20T14:25:21;9.65;;;0.85;;
53710;SDS011;39605;52.704;6.752;2023-12-20T14:27:48;9.85;;;0.85;;
53710;SDS011;39605;52.704;6.752;2023-12-20T14:30:14;6.85;;;0.55;;
53710;SDS011;39605;52.704;6.752;2023-12-20T14:32:41;7.60;;;0.70;;
53710;SDS011;39605;52.704;6.752;2023-12-20T14:35:08;6.35;;;0.82;;
53710;SDS011;39605;52.704;6.752;2023-12-20T14:37:34;5.53;;;0.93;;
53710;SDS011;39605;52.704;6.752;2023-12-20T14:40:01;3.33;;;0.40;;
53710;SDS011;39605;52.704;6.752;2023-12-20T14:42:27;9.82;;;1.13;;